createdAt,value
2023-01-20T00:00:00.845Z,0.79
2023-01-20T00:02:46.307Z,0.81
2023-01-20T00:05:31.991Z,0.92
2023-01-20T00:08:17.658Z,0.92
2023-01-20T00:11:07.966Z,1.11
2023-01-20T00:13:55.748Z,1.03
2023-01-20T00:16:41.228Z,1.08
2023-01-20T00:19:27.583Z,1.16
2023-01-20T00:22:12.883Z,1.08
2023-01-20T00:24:58.572Z,1.18
2023-01-20T00:27:44.173Z,1.28
2023-01-20T00:30:30.007Z,1.32
2023-01-20T00:33:15.428Z,1.34
2023-01-20T00:36:01.082Z,1.35
2023-01-20T00:38:47.015Z,1.53
2023-01-20T00:41:32.590Z,1.47
2023-01-20T00:44:18.106Z,1.47
2023-01-20T00:47:20.914Z,1.48
2023-01-20T00:50:06.677Z,1.45
2023-01-20T00:52:52.378Z,1.48
2023-01-20T00:55:38.228Z,1.54
2023-01-20T00:58:24.015Z,1.43
2023-01-20T01:01:10.029Z,1.47
2023-01-20T01:03:55.735Z,1.46
2023-01-20T01:06:41.374Z,1.52
2023-01-20T01:09:26.666Z,1.33
2023-01-20T01:12:12.231Z,1.34
2023-01-20T01:14:57.650Z,1.44
2023-01-20T01:17:46.575Z,1.40
2023-01-20T01:20:32.005Z,1.38
2023-01-20T01:23:17.333Z,1.39
2023-01-20T01:26:02.736Z,1.35
2023-01-20T01:28:49.871Z,1.35
2023-01-20T01:31:35.684Z,1.35
2023-01-20T01:34:21.392Z,1.38
2023-01-20T01:37:06.965Z,1.24
2023-01-20T01:39:52.503Z,1.31
2023-01-20T01:42:38.153Z,1.45
2023-01-20T01:45:29.692Z,1.39
2023-01-20T01:48:16.148Z,1.42
2023-01-20T01:51:07.451Z,1.38
2023-01-20T01:54:05.765Z,1.36
2023-01-20T01:56:51.769Z,1.31
2023-01-20T01:59:37.861Z,1.19
2023-01-20T02:02:24.189Z,1.25
2023-01-20T02:05:11.909Z,1.29
2023-01-20T02:07:58.324Z,1.27
2023-01-20T02:10:43.708Z,1.40
2023-01-20T02:13:29.435Z,1.25
2023-01-20T02:16:21.310Z,1.29
2023-01-20T02:19:15.760Z,1.25
2023-01-20T02:22:16.143Z,1.30
2023-01-20T02:25:22.954Z,1.32
2023-01-20T02:28:42.519Z,1.40
2023-01-20T02:31:51.848Z,1.60
2023-01-20T02:34:58.771Z,1.39
2023-01-20T02:37:55.317Z,1.47
2023-01-20T02:40:53.467Z,1.38
2023-01-20T02:44:03.761Z,1.42
2023-01-20T02:47:09.573Z,1.32
2023-01-20T02:50:01.117Z,1.32
2023-01-20T02:52:51.738Z,1.35
2023-01-20T02:55:53.178Z,1.36
2023-01-20T02:58:48.532Z,1.55
2023-01-20T03:01:49.088Z,1.44
2023-01-20T03:04:41.458Z,1.40
2023-01-20T03:07:30.128Z,1.33
2023-01-20T03:10:20.375Z,1.44
2023-01-20T03:13:13.703Z,1.43
2023-01-20T03:16:04.399Z,1.42
2023-01-20T03:18:51.382Z,1.42
2023-01-20T03:21:37.076Z,1.40
2023-01-20T03:24:23.913Z,1.43
2023-01-20T03:27:11.179Z,1.41
2023-01-20T03:29:56.580Z,1.40
2023-01-20T03:32:46.207Z,1.42
2023-01-20T03:35:32.268Z,1.51
2023-01-20T03:38:17.793Z,1.50
2023-01-20T03:41:25.979Z,1.60
2023-01-20T03:44:27.724Z,1.55
2023-01-20T03:47:34.911Z,1.49
2023-01-20T03:50:59.808Z,1.43
2023-01-20T03:53:54.090Z,1.53
2023-01-20T03:56:51.211Z,1.42
2023-01-20T03:59:40.343Z,1.43
2023-01-20T04:02:28.156Z,1.38
2023-01-20T04:05:14.818Z,1.47
2023-01-20T04:08:03.474Z,1.56
2023-01-20T04:10:51.144Z,1.62
2023-01-20T04:13:36.819Z,1.53
2023-01-20T04:16:24.683Z,1.61
2023-01-20T04:19:10.508Z,1.52
2023-01-20T04:22:10.169Z,1.47
2023-01-20T04:25:01.221Z,1.49
2023-01-20T04:27:46.801Z,1.37
2023-01-20T04:30:32.639Z,1.36
2023-01-20T04:33:18.321Z,1.34
2023-01-20T04:36:04.288Z,1.23
2023-01-20T04:38:49.656Z,1.23
2023-01-20T04:41:35.106Z,1.31
2023-01-20T04:44:20.429Z,1.31
2023-01-20T04:47:06.179Z,1.18
2023-01-20T04:49:51.606Z,1.28
2023-01-20T04:52:37.249Z,1.18
2023-01-20T04:55:22.872Z,1.29
2023-01-20T04:58:10.222Z,1.13
2023-01-20T05:00:55.399Z,1.07
2023-01-20T05:03:41.112Z,1.10
2023-01-20T05:06:26.999Z,1.12
2023-01-20T05:09:16.386Z,0.97
2023-01-20T05:12:02.355Z,1.10
2023-01-20T05:14:47.988Z,1.17
2023-01-20T05:17:33.512Z,1.20
2023-01-20T05:20:20.714Z,1.23
2023-01-20T05:23:06.977Z,1.17
2023-01-20T05:25:53.198Z,1.23
2023-01-20T05:28:38.678Z,1.24
2023-01-20T05:31:24.085Z,1.21
2023-01-20T05:34:10.914Z,1.13
2023-01-20T05:36:56.338Z,1.20
2023-01-20T05:39:41.894Z,1.27
2023-01-20T05:42:27.518Z,1.04
2023-01-20T05:45:13.135Z,0.95
2023-01-20T05:47:59.648Z,1.00
2023-01-20T05:50:45.404Z,1.07
2023-01-20T05:53:30.605Z,1.09
2023-01-20T05:56:16.388Z,1.14
2023-01-20T05:59:01.973Z,1.25
2023-01-20T06:01:47.593Z,1.20
2023-01-20T06:04:33.422Z,1.06
2023-01-20T06:07:19.038Z,0.95
2023-01-20T06:10:05.078Z,1.02
2023-01-20T06:12:54.880Z,1.08
2023-01-20T06:15:40.226Z,1.23
2023-01-20T06:18:25.546Z,0.91
2023-01-20T06:21:11.553Z,0.95
2023-01-20T06:23:57.030Z,0.85
2023-01-20T06:26:42.606Z,0.92
2023-01-20T06:29:28.222Z,0.97
2023-01-20T06:32:13.815Z,0.99
2023-01-20T06:34:59.191Z,0.80
2023-01-20T06:37:44.524Z,0.77
2023-01-20T06:40:31.027Z,0.77
2023-01-20T06:43:16.970Z,0.80
2023-01-20T06:46:04.944Z,0.83
2023-01-20T06:48:50.308Z,0.80
2023-01-20T06:51:35.923Z,0.81
2023-01-20T06:54:21.575Z,0.74
2023-01-20T06:57:06.920Z,0.79
2023-01-20T06:59:52.449Z,0.76
2023-01-20T07:02:37.827Z,0.68
2023-01-20T07:05:23.283Z,0.82
2023-01-20T07:08:08.976Z,0.83
2023-01-20T07:10:54.467Z,0.87
2023-01-20T07:13:39.983Z,0.94
2023-01-20T07:16:25.376Z,0.65
2023-01-20T07:19:12.004Z,0.72
2023-01-20T07:21:57.824Z,0.72
2023-01-20T07:24:42.956Z,0.91
2023-01-20T07:27:28.552Z,1.02
2023-01-20T07:30:14.204Z,1.13
2023-01-20T07:32:59.400Z,0.97
2023-01-20T07:35:44.774Z,0.98
2023-01-20T07:38:30.782Z,1.06
2023-01-20T07:41:18.086Z,1.02
2023-01-20T07:44:03.404Z,0.76
2023-01-20T07:46:51.542Z,0.73
2023-01-20T07:49:37.035Z,0.69
2023-01-20T07:52:22.768Z,0.77
2023-01-20T07:55:07.998Z,0.70
2023-01-20T07:57:53.545Z,0.70
2023-01-20T08:00:39.277Z,0.74
2023-01-20T08:03:27.361Z,0.82
2023-01-20T08:06:15.480Z,0.85
2023-01-20T08:09:02.009Z,0.77
2023-01-20T08:11:47.295Z,0.82
2023-01-20T08:14:32.598Z,0.82
2023-01-20T08:17:17.891Z,0.88
2023-01-20T08:20:03.539Z,0.96
2023-01-20T08:22:48.995Z,0.93
2023-01-20T08:25:34.370Z,0.77
2023-01-20T08:28:19.936Z,0.99
2023-01-20T08:31:08.419Z,1.05
2023-01-20T08:33:55.631Z,1.06
2023-01-20T08:36:41.502Z,1.13
2023-01-20T08:39:27.205Z,1.14
2023-01-20T08:42:13.004Z,1.07
2023-01-20T08:44:58.218Z,1.20
2023-01-20T08:47:45.821Z,1.23
2023-01-20T08:50:31.211Z,1.34
2023-01-20T08:53:16.712Z,1.27
2023-01-20T08:56:03.141Z,1.36
2023-01-20T08:58:48.755Z,1.44
2023-01-20T09:01:36.181Z,1.72
2023-01-20T09:04:21.732Z,1.87
2023-01-20T09:07:08.149Z,2.42
2023-01-20T09:09:53.385Z,4.61
2023-01-20T09:12:39.425Z,5.42
2023-01-20T09:15:25.713Z,5.81
2023-01-20T09:18:11.427Z,5.39
2023-01-20T09:20:58.752Z,4.85
2023-01-20T09:23:46.944Z,3.77
2023-01-20T09:26:38.470Z,3.53
2023-01-20T09:29:24.615Z,3.48
2023-01-20T09:32:12.819Z,3.00
2023-01-20T09:34:58.184Z,3.17
2023-01-20T09:38:01.896Z,3.41
2023-01-20T09:41:22.999Z,4.17
2023-01-20T09:44:36.633Z,5.98
2023-01-20T09:47:30.991Z,7.49
2023-01-20T09:50:37.429Z,8.79
2023-01-20T09:53:41.510Z,8.53
2023-01-20T09:56:29.261Z,10.86
2023-01-20T09:59:30.731Z,12.82
2023-01-20T10:02:25.616Z,12.95
2023-01-20T10:05:13.812Z,12.12
2023-01-20T10:08:08.287Z,12.62
2023-01-20T10:11:01.200Z,11.78
2023-01-20T10:13:56.302Z,11.99
2023-01-20T10:16:50.267Z,13.24
2023-01-20T10:19:47.776Z,12.47
2023-01-20T10:22:53.310Z,12.62
2023-01-20T10:25:45.267Z,14.10
2023-01-20T10:28:36.610Z,12.77
2023-01-20T10:31:27.637Z,14.16
2023-01-20T10:34:18.814Z,14.83
2023-01-20T10:37:10.160Z,14.40
2023-01-20T10:40:13.936Z,14.28
2023-01-20T10:43:04.295Z,15.75
2023-01-20T10:46:03.970Z,17.61
2023-01-20T10:49:27.073Z,17.19
2023-01-20T10:52:19.612Z,16.75
2023-01-20T10:55:18.183Z,17.45
2023-01-20T10:58:20.787Z,16.29
2023-01-20T11:01:10.353Z,16.63
2023-01-20T11:03:55.769Z,14.82
2023-01-20T11:06:41.597Z,15.63
2023-01-20T11:09:35.084Z,16.06
2023-01-20T11:12:27.499Z,17.29
2023-01-20T11:15:33.823Z,16.97
2023-01-20T11:18:22.392Z,18.23
2023-01-20T11:21:12.516Z,18.43
2023-01-20T11:23:58.814Z,13.74
2023-01-20T11:26:44.316Z,12.76
2023-01-20T11:29:32.405Z,11.80
2023-01-20T11:32:35.958Z,10.96
2023-01-20T11:35:25.160Z,9.39
2023-01-20T11:38:28.773Z,11.67
2023-01-20T11:41:23.040Z,10.53
2023-01-20T11:44:08.557Z,9.57
2023-01-20T11:46:55.012Z,11.95
2023-01-20T11:49:40.720Z,16.54
2023-01-20T11:52:26.157Z,19.02
2023-01-20T11:55:17.798Z,16.50
2023-01-20T11:58:04.007Z,13.45
2023-01-20T12:00:52.191Z,10.31
2023-01-20T12:03:41.182Z,9.58
2023-01-20T12:06:30.833Z,8.96
2023-01-20T12:09:19.774Z,8.81
2023-01-20T12:12:15.170Z,9.92
2023-01-20T12:15:19.447Z,12.83
2023-01-20T12:18:18.958Z,13.54
2023-01-20T12:21:10.717Z,14.29
2023-01-20T12:24:07.612Z,14.90
2023-01-20T12:26:53.757Z,15.81
2023-01-20T12:29:45.628Z,18.10
2023-01-20T12:32:33.122Z,20.07
2023-01-20T12:35:20.957Z,19.47
2023-01-20T12:38:08.311Z,19.12
2023-01-20T12:40:55.195Z,19.81
2023-01-20T12:43:56.444Z,18.52
2023-01-20T12:47:33.151Z,16.72
2023-01-20T12:50:44.865Z,19.17
2023-01-20T12:53:43.508Z,20.52
2023-01-20T12:57:02.926Z,21.21
2023-01-20T13:00:05.328Z,21.14
2023-01-20T13:03:30.164Z,19.34
2023-01-20T13:06:42.411Z,18.47
2023-01-20T13:09:52.549Z,18.53
2023-01-20T13:12:56.852Z,16.65
2023-01-20T13:15:48.391Z,16.84
2023-01-20T13:18:47.631Z,14.49
2023-01-20T13:21:34.186Z,13.82
2023-01-20T13:24:29.061Z,15.80
2023-01-20T13:27:23.685Z,16.39
2023-01-20T13:30:44.239Z,17.67
2023-01-20T13:33:33.228Z,17.35
2023-01-20T13:36:23.612Z,17.88
2023-01-20T13:39:40.546Z,16.05
2023-01-20T13:42:31.595Z,14.90
2023-01-20T13:45:19.732Z,13.40
2023-01-20T13:48:10.951Z,11.81
2023-01-20T13:51:16.797Z,9.39
2023-01-20T13:54:32.628Z,8.10
2023-01-20T13:57:26.036Z,7.58
2023-01-20T14:00:12.962Z,6.80
2023-01-20T14:02:58.333Z,6.85
2023-01-20T14:05:48.979Z,6.53
2023-01-20T14:08:39.524Z,6.24
2023-01-20T14:11:26.862Z,6.36
2023-01-20T14:14:18.817Z,6.31
2023-01-20T14:17:15.385Z,6.37
2023-01-20T14:20:00.716Z,6.35
2023-01-20T14:22:46.366Z,6.28
2023-01-20T14:25:31.989Z,6.27
2023-01-20T14:28:19.666Z,6.26
2023-01-20T14:31:19.514Z,6.02
2023-01-20T14:34:32.117Z,5.89
2023-01-20T14:37:24.823Z,6.01
2023-01-20T14:40:16.279Z,5.98
2023-01-20T14:43:12.110Z,5.91
2023-01-20T14:45:57.541Z,5.78
2023-01-20T14:48:44.514Z,5.70
2023-01-20T14:51:30.174Z,5.57
2023-01-20T14:54:49.720Z,5.48
2023-01-20T14:57:43.424Z,5.39
2023-01-20T15:00:31.529Z,5.32
2023-01-20T15:03:25.579Z,5.21
2023-01-20T15:06:10.909Z,5.23
2023-01-20T15:09:06.518Z,4.88
2023-01-20T15:12:45.195Z,4.81
2023-01-20T15:15:32.323Z,4.45
2023-01-20T15:18:22.307Z,4.56
2023-01-20T15:21:27.065Z,4.52
2023-01-20T15:24:13.608Z,4.30
2023-01-20T15:27:01.203Z,4.21
2023-01-20T15:29:59.826Z,3.67
2023-01-20T15:32:47.238Z,3.75
2023-01-20T15:35:33.040Z,3.69
2023-01-20T15:38:18.371Z,3.61
2023-01-20T15:41:04.068Z,3.47
2023-01-20T15:43:51.263Z,3.27
2023-01-20T15:46:38.444Z,3.11
2023-01-20T15:49:25.033Z,3.05
2023-01-20T15:52:10.757Z,2.97
2023-01-20T15:54:56.336Z,2.97
2023-01-20T15:57:42.624Z,2.69
2023-01-20T16:00:30.691Z,2.54
2023-01-20T16:03:16.501Z,2.29
2023-01-20T16:06:02.049Z,2.19
2023-01-20T16:08:49.733Z,2.04
2023-01-20T16:11:35.124Z,1.99
2023-01-20T16:14:20.695Z,1.86
2023-01-20T16:17:18.322Z,1.77
2023-01-20T16:20:03.869Z,1.29
2023-01-20T16:22:49.623Z,1.35
2023-01-20T16:25:35.321Z,1.34
2023-01-20T16:28:23.499Z,1.33
2023-01-20T16:31:11.493Z,1.25
2023-01-20T16:33:56.882Z,1.15
2023-01-20T16:36:42.095Z,0.93
2023-01-20T16:39:27.892Z,0.90
2023-01-20T16:42:14.606Z,0.73
2023-01-20T16:45:00.260Z,0.71
2023-01-20T16:47:45.667Z,0.77
2023-01-20T16:50:31.282Z,0.93
2023-01-20T16:53:18.514Z,1.03
2023-01-20T16:56:05.194Z,1.02
2023-01-20T16:58:52.609Z,1.09
2023-01-20T17:01:38.043Z,1.20
2023-01-20T17:04:23.831Z,1.23
2023-01-20T17:07:09.116Z,1.24
2023-01-20T17:09:55.864Z,1.06
2023-01-20T17:12:41.471Z,1.13
2023-01-20T17:15:27.903Z,1.20
2023-01-20T17:18:13.451Z,1.14
2023-01-20T17:21:07.040Z,1.20
2023-01-20T17:23:57.284Z,1.45
2023-01-20T17:26:42.914Z,1.30
2023-01-20T17:29:28.185Z,1.20
2023-01-20T17:32:13.956Z,1.30
2023-01-20T17:34:59.313Z,1.11
2023-01-20T17:37:44.865Z,0.86
2023-01-20T17:40:30.201Z,0.76
2023-01-20T17:43:15.486Z,0.68
2023-01-20T17:46:01.906Z,0.67
2023-01-20T17:48:47.304Z,0.45
2023-01-20T17:51:33.069Z,0.55
2023-01-20T17:54:18.325Z,0.67
2023-01-20T17:57:03.620Z,0.73
2023-01-20T17:59:49.104Z,0.86
2023-01-20T18:02:34.874Z,0.89
2023-01-20T18:05:20.401Z,0.89
2023-01-20T18:08:05.706Z,1.03
2023-01-20T18:10:51.268Z,0.97
2023-01-20T18:13:37.252Z,0.84
2023-01-20T18:16:26.254Z,0.89
2023-01-20T18:19:13.918Z,0.92
2023-01-20T18:22:01.796Z,0.77
2023-01-20T18:24:47.259Z,0.72
2023-01-20T18:27:33.208Z,0.78
2023-01-20T18:30:18.851Z,0.65
2023-01-20T18:33:04.401Z,0.55
2023-01-20T18:35:50.120Z,0.29
2023-01-20T18:38:35.723Z,0.09
2023-01-20T18:41:21.643Z,0.09
2023-01-20T18:44:07.631Z,0.20
2023-01-20T18:46:53.176Z,0.00
2023-01-20T18:49:38.549Z,-0.16
2023-01-20T18:52:24.074Z,-0.26
2023-01-20T18:55:09.940Z,-0.29
2023-01-20T18:57:55.240Z,-0.29
2023-01-20T19:00:40.936Z,-0.44
2023-01-20T19:03:26.300Z,-0.51
2023-01-20T19:06:14.953Z,-0.54
2023-01-20T19:09:01.149Z,-0.67
2023-01-20T19:11:46.625Z,-0.59
2023-01-20T19:14:32.068Z,-0.52
2023-01-20T19:17:17.347Z,-0.58
2023-01-20T19:20:04.193Z,-0.58
2023-01-20T19:22:49.482Z,-0.54
2023-01-20T19:25:34.950Z,-0.60
2023-01-20T19:28:20.350Z,-0.55
2023-01-20T19:31:08.243Z,-0.66
2023-01-20T19:33:53.667Z,-0.78
2023-01-20T19:36:39.292Z,-0.65
2023-01-20T19:39:24.775Z,-0.71
2023-01-20T19:42:10.154Z,-0.83
2023-01-20T19:44:55.725Z,-0.89
2023-01-20T19:47:41.583Z,-0.93
2023-01-20T19:50:26.918Z,-0.86
2023-01-20T19:53:12.549Z,-0.95
2023-01-20T19:56:02.464Z,-0.92
2023-01-20T19:58:48.347Z,-1.10
2023-01-20T20:01:35.946Z,-1.03
2023-01-20T20:04:23.887Z,-1.13
2023-01-20T20:07:09.236Z,-1.11
2023-01-20T20:09:54.625Z,-1.12
2023-01-20T20:12:40.386Z,-0.98
2023-01-20T20:15:25.756Z,-1.11
2023-01-20T20:18:11.358Z,-1.37
2023-01-20T20:20:57.479Z,-1.31
2023-01-20T20:23:43.199Z,-1.34
2023-01-20T20:26:31.611Z,-1.22
2023-01-20T20:29:19.035Z,-1.47
2023-01-20T20:32:04.684Z,-1.49
2023-01-20T20:34:50.282Z,-1.52
2023-01-20T20:37:35.609Z,-1.38
2023-01-20T20:40:21.238Z,-1.23
2023-01-20T20:43:06.727Z,-1.09
2023-01-20T20:45:52.568Z,-1.05
2023-01-20T20:48:37.948Z,-1.13
2023-01-20T20:51:24.180Z,-1.01
2023-01-20T20:54:11.752Z,-1.01
2023-01-20T20:56:57.167Z,-1.12
2023-01-20T20:59:58.211Z,-1.31
2023-01-20T21:02:44.666Z,-1.33
2023-01-20T21:05:30.120Z,-1.47
2023-01-20T21:08:16.492Z,-1.48
2023-01-20T21:11:03.946Z,-1.51
2023-01-20T21:13:49.712Z,-1.55
2023-01-20T21:16:35.676Z,-1.59
2023-01-20T21:19:24.335Z,-1.51
2023-01-20T21:22:09.929Z,-1.49
2023-01-20T21:24:55.280Z,-1.58
2023-01-20T21:27:41.046Z,-1.62
2023-01-20T21:30:26.374Z,-1.75
2023-01-20T21:33:17.506Z,-1.60
2023-01-20T21:36:03.095Z,-1.64
2023-01-20T21:38:48.507Z,-1.68
2023-01-20T21:41:34.239Z,-1.62
2023-01-20T21:44:28.249Z,-1.59
2023-01-20T21:47:13.640Z,-1.58
2023-01-20T21:50:17.764Z,-1.50
2023-01-20T21:53:03.661Z,-1.38
2023-01-20T21:55:49.320Z,-1.31
2023-01-20T21:58:34.586Z,-1.39
2023-01-20T22:01:19.912Z,-1.07
2023-01-20T22:04:05.381Z,-0.95
2023-01-20T22:06:50.767Z,-0.88
2023-01-20T22:09:36.308Z,-0.58
2023-01-20T22:12:21.577Z,-0.74
2023-01-20T22:15:07.594Z,-0.73
2023-01-20T22:17:53.011Z,-0.78
2023-01-20T22:20:38.664Z,-0.89
2023-01-20T22:23:24.384Z,-0.77
2023-01-20T22:26:10.282Z,-0.67
2023-01-20T22:28:55.937Z,-0.64
2023-01-20T22:31:41.153Z,-0.57
2023-01-20T22:34:26.812Z,-0.42
2023-01-20T22:37:12.397Z,-0.29
2023-01-20T22:39:57.846Z,-0.33
2023-01-20T22:42:43.547Z,-0.33
2023-01-20T22:45:28.870Z,-0.21
2023-01-20T22:48:14.304Z,-0.29
2023-01-20T22:51:11.284Z,-0.16
2023-01-20T22:53:59.284Z,-0.15
2023-01-20T22:56:44.724Z,-0.14
2023-01-20T22:59:29.998Z,-0.12
2023-01-20T23:02:15.577Z,-0.15
2023-01-20T23:05:00.897Z,-0.15
2023-01-20T23:07:46.569Z,-0.16
2023-01-20T23:10:46.907Z,-0.08
2023-01-20T23:13:32.918Z,-0.05
2023-01-20T23:16:22.204Z,0.03
2023-01-20T23:19:07.973Z,-0.05
2023-01-20T23:21:53.584Z,0.13
2023-01-20T23:24:39.305Z,0.04
2023-01-20T23:27:24.615Z,0.03
2023-01-20T23:30:12.733Z,0.18
2023-01-20T23:32:58.064Z,0.23
2023-01-20T23:35:43.639Z,0.22
2023-01-20T23:38:28.941Z,0.13
2023-01-20T23:41:15.339Z,0.27
2023-01-20T23:44:00.742Z,0.22
2023-01-20T23:46:46.095Z,0.23
2023-01-20T23:49:31.652Z,0.29
2023-01-20T23:52:16.917Z,0.24
2023-01-20T23:55:02.324Z,0.34
2023-01-20T23:57:47.805Z,0.32
